createdAt,value
2018-06-13T00:02:24.557Z,83.41
2018-06-13T00:04:55.793Z,83.33
2018-06-13T00:07:27.510Z,83.35
2018-06-13T00:09:58.663Z,82.98
2018-06-13T00:12:30.971Z,82.97
2018-06-13T00:15:01.889Z,82.74
2018-06-13T00:17:33.195Z,82.92
2018-06-13T00:20:04.861Z,83.24
2018-06-13T00:22:36.116Z,81.99
2018-06-13T00:25:07.411Z,81.82
2018-06-13T00:27:38.988Z,82.12
2018-06-13T00:30:10.123Z,81.88
2018-06-13T00:32:41.390Z,82.52
2018-06-13T00:35:13.806Z,81.65
2018-06-13T00:37:45.407Z,82.40
2018-06-13T00:40:17.078Z,82.42
2018-06-13T00:42:48.999Z,82.36
2018-06-13T00:45:20.335Z,83.00
2018-06-13T00:47:51.536Z,82.75
2018-06-13T00:50:22.794Z,83.82
2018-06-13T00:52:53.990Z,84.45
2018-06-13T00:55:25.883Z,85.01
2018-06-13T00:57:59.044Z,85.69
2018-06-13T01:00:30.159Z,86.13
2018-06-13T01:03:01.595Z,85.41
2018-06-13T01:05:33.127Z,85.19
2018-06-13T01:08:04.732Z,84.84
2018-06-13T01:10:36.349Z,84.64
2018-06-13T01:13:07.659Z,84.45
2018-06-13T01:15:39.100Z,83.90
2018-06-13T01:18:12.117Z,84.56
2018-06-13T01:20:44.062Z,85.10
2018-06-13T01:23:15.700Z,84.57
2018-06-13T01:25:46.973Z,84.54
2018-06-13T01:28:18.216Z,84.83
2018-06-13T01:30:49.326Z,85.04
2018-06-13T01:33:20.851Z,85.03
2018-06-13T01:35:52.066Z,85.14
2018-06-13T01:38:23.125Z,85.89
2018-06-13T01:40:54.302Z,86.30
2018-06-13T01:43:25.834Z,86.54
2018-06-13T01:45:57.398Z,86.76
2018-06-13T01:48:29.767Z,86.93
2018-06-13T01:51:00.835Z,87.43
2018-06-13T01:53:32.339Z,87.93
2018-06-13T01:56:03.886Z,88.28
2018-06-13T01:58:35.465Z,88.18
2018-06-13T02:01:06.525Z,87.46
2018-06-13T02:03:37.587Z,86.51
2018-06-13T02:06:08.779Z,86.41
2018-06-13T02:08:39.912Z,85.92
2018-06-13T02:11:11.820Z,86.26
2018-06-13T02:13:43.285Z,86.10
2018-06-13T02:16:14.287Z,85.62
2018-06-13T02:18:45.228Z,85.74
2018-06-13T02:21:17.206Z,85.88
2018-06-13T02:23:48.585Z,85.95
2018-06-13T02:26:19.565Z,86.22
2018-06-13T02:28:51.503Z,86.34
2018-06-13T02:31:22.556Z,86.37
2018-06-13T02:33:53.693Z,86.89
2018-06-13T02:36:24.646Z,86.28
2018-06-13T02:38:56.488Z,86.37
2018-06-13T02:41:28.535Z,86.56
2018-06-13T02:43:59.871Z,86.58
2018-06-13T02:46:30.970Z,86.45
2018-06-13T02:49:02.495Z,87.11
2018-06-13T02:51:33.568Z,87.00
2018-06-13T02:54:04.845Z,86.92
2018-06-13T02:56:36.913Z,86.81
2018-06-13T02:59:08.055Z,86.59
2018-06-13T03:01:39.181Z,87.29
2018-06-13T03:04:10.265Z,87.22
2018-06-13T03:06:41.415Z,87.12
2018-06-13T03:09:12.558Z,86.85
2018-06-13T03:11:43.574Z,86.78
2018-06-13T03:14:15.058Z,86.09
2018-06-13T03:16:46.160Z,86.31
2018-06-13T03:19:17.467Z,85.78
2018-06-13T03:21:49.638Z,85.18
2018-06-13T03:24:21.275Z,84.90
2018-06-13T03:26:52.603Z,84.37
2018-06-13T03:29:24.792Z,84.69
2018-06-13T03:31:55.677Z,84.91
2018-06-13T03:34:26.589Z,84.87
2018-06-13T03:36:57.792Z,84.28
2018-06-13T03:39:29.176Z,84.09
2018-06-13T03:42:00.530Z,84.04
2018-06-13T03:44:32.065Z,82.76
2018-06-13T03:47:04.032Z,82.73
2018-06-13T03:49:36.442Z,82.91
2018-06-13T03:52:07.565Z,83.09
2018-06-13T03:54:38.625Z,82.80
2018-06-13T03:57:09.697Z,82.48
2018-06-13T03:59:40.656Z,82.70
2018-06-13T04:02:11.712Z,82.45
2018-06-13T04:04:43.391Z,82.50
2018-06-13T04:07:15.146Z,82.97
2018-06-13T04:09:46.735Z,82.58
2018-06-13T04:12:17.830Z,82.83
2018-06-13T04:14:49.047Z,82.38
2018-06-13T04:17:19.602Z,82.29
2018-06-13T04:19:50.111Z,82.32
2018-06-13T04:22:21.704Z,81.91
2018-06-13T04:24:53.492Z,81.50
2018-06-13T04:27:25.011Z,81.54
2018-06-13T04:29:56.070Z,81.57
2018-06-13T04:32:27.022Z,81.28
2018-06-13T04:34:58.030Z,80.73
2018-06-13T04:37:29.716Z,78.48
2018-06-13T04:40:01.291Z,77.59
2018-06-13T04:42:33.187Z,77.85
2018-06-13T04:45:04.245Z,77.65
2018-06-13T04:47:35.340Z,77.02
2018-06-13T04:50:06.617Z,75.93
2018-06-13T04:52:37.658Z,75.65
2018-06-13T04:55:08.702Z,75.51
2018-06-13T04:57:40.524Z,74.83
2018-06-13T05:00:12.343Z,75.13
2018-06-13T05:02:43.445Z,74.68
2018-06-13T05:05:14.295Z,74.62
2018-06-13T05:07:45.505Z,74.29
2018-06-13T05:10:16.959Z,74.30
2018-06-13T05:12:48.055Z,74.40
2018-06-13T05:15:20.297Z,74.84
2018-06-13T05:17:52.268Z,74.44
2018-06-13T05:20:23.472Z,74.42
2018-06-13T05:22:55.545Z,74.10
2018-06-13T05:25:27.758Z,73.56
2018-06-13T05:27:58.433Z,73.63
2018-06-13T05:30:30.108Z,73.46
2018-06-13T05:33:01.469Z,74.04
2018-06-13T05:35:33.093Z,75.11
2018-06-13T05:38:04.560Z,75.55
2018-06-13T05:40:35.889Z,76.30
2018-06-13T05:43:08.002Z,76.49
2018-06-13T05:45:38.986Z,76.66
2018-06-13T05:48:10.614Z,76.60
2018-06-13T05:50:41.548Z,77.17
2018-06-13T05:53:14.358Z,76.74
2018-06-13T05:55:45.604Z,78.17
2018-06-13T05:58:16.515Z,78.24
2018-06-13T06:00:47.766Z,78.64
2018-06-13T06:03:19.023Z,78.57
2018-06-13T06:05:50.520Z,79.53
2018-06-13T06:08:21.388Z,79.35
2018-06-13T06:10:52.912Z,80.12
2018-06-13T06:13:24.350Z,80.48
2018-06-13T06:15:57.312Z,81.50
2018-06-13T06:18:29.118Z,81.28
2018-06-13T06:21:01.239Z,81.25
2018-06-13T06:23:33.094Z,81.08
2018-06-13T06:26:06.422Z,80.91
2018-06-13T06:28:37.534Z,81.04
2018-06-13T06:31:09.558Z,80.91
2018-06-13T06:33:41.965Z,81.55
2018-06-13T06:36:13.262Z,82.68
2018-06-13T06:38:44.703Z,82.69
2018-06-13T06:41:16.066Z,82.66
2018-06-13T06:43:47.108Z,82.39
2018-06-13T06:46:18.205Z,81.33
2018-06-13T06:48:49.359Z,80.99
2018-06-13T06:51:21.741Z,80.75
2018-06-13T06:53:53.620Z,81.08
2018-06-13T06:56:25.907Z,80.99
2018-06-13T06:58:57.324Z,81.53
2018-06-13T07:01:32.546Z,81.29
2018-06-13T07:04:06.405Z,81.69
2018-06-13T07:06:38.107Z,81.42
2018-06-13T07:09:12.324Z,82.05
2018-06-13T07:11:43.804Z,82.97
2018-06-13T07:14:14.979Z,82.81
2018-06-13T07:16:46.150Z,83.99
2018-06-13T07:19:18.248Z,83.64
2018-06-13T07:21:49.199Z,83.43
2018-06-13T07:24:20.358Z,84.38
2018-06-13T07:26:52.322Z,85.03
2018-06-13T07:29:25.115Z,85.86
2018-06-13T07:31:56.435Z,86.42
2018-06-13T07:34:27.649Z,86.59
2018-06-13T07:36:58.886Z,87.14
2018-06-13T07:39:30.297Z,88.30
2018-06-13T07:42:01.873Z,89.39
2018-06-13T07:44:34.707Z,89.69
2018-06-13T07:47:06.412Z,90.81
2018-06-13T07:49:38.677Z,91.14
2018-06-13T07:52:10.893Z,91.95
2018-06-13T07:54:43.365Z,92.82
2018-06-13T07:57:15.058Z,93.67
2018-06-13T07:59:47.788Z,93.98
2018-06-13T08:02:19.504Z,94.54
2018-06-13T08:04:52.132Z,94.78
2018-06-13T08:07:24.144Z,94.48
2018-06-13T08:09:55.390Z,94.80
2018-06-13T08:12:27.736Z,94.79
2018-06-13T08:14:58.992Z,93.03
2018-06-13T08:17:30.075Z,92.01
2018-06-13T08:20:01.565Z,92.44
2018-06-13T08:22:32.960Z,90.03
2018-06-13T08:25:04.881Z,90.40
2018-06-13T08:27:38.368Z,90.79
2018-06-13T08:30:09.600Z,90.73
2018-06-13T08:32:41.744Z,91.23
2018-06-13T08:35:13.477Z,91.22
2018-06-13T08:37:44.977Z,91.21
2018-06-13T08:40:17.575Z,92.04
2018-06-13T08:42:49.364Z,90.62
2018-06-13T08:45:20.696Z,91.05
2018-06-13T08:47:51.880Z,90.68
2018-06-13T08:50:25.628Z,91.04
2018-06-13T08:52:56.814Z,89.37
2018-06-13T08:55:28.013Z,86.82
2018-06-13T08:58:00.312Z,87.08
2018-06-13T09:00:32.777Z,84.62
2018-06-13T09:03:04.519Z,84.00
2018-06-13T09:05:36.183Z,82.69
2018-06-13T09:08:08.373Z,82.54
2018-06-13T09:10:41.739Z,80.90
2018-06-13T09:13:15.243Z,79.43
2018-06-13T09:15:47.864Z,78.09
2018-06-13T09:18:18.941Z,75.34
2018-06-13T09:20:51.625Z,71.90
2018-06-13T09:23:23.211Z,73.81
2018-06-13T09:25:54.090Z,71.17
2018-06-13T09:28:26.169Z,70.87
2018-06-13T09:30:59.684Z,70.32
2018-06-13T09:33:31.377Z,72.85
2018-06-13T09:36:02.783Z,70.21
2018-06-13T09:38:34.327Z,69.25
2018-06-13T09:41:06.600Z,72.51
2018-06-13T09:43:37.814Z,71.94
2018-06-13T09:46:12.016Z,73.58
2018-06-13T09:48:42.886Z,72.01
2018-06-13T09:51:15.910Z,74.64
2018-06-13T09:53:47.285Z,71.81
2018-06-13T09:56:20.628Z,73.88
2018-06-13T09:58:56.909Z,73.48
2018-06-13T10:02:37.095Z,71.47
2018-06-13T10:05:10.911Z,72.87
2018-06-13T10:07:43.961Z,71.77
2018-06-13T10:10:17.513Z,71.84
2018-06-13T10:12:49.720Z,72.26
2018-06-13T10:15:22.482Z,70.80
2018-06-13T10:17:54.357Z,68.54
2018-06-13T10:20:27.064Z,67.78
2018-06-13T10:22:58.404Z,65.96
2018-06-13T10:25:29.726Z,71.56
2018-06-13T10:28:01.483Z,73.81
2018-06-13T10:30:32.213Z,74.33
2018-06-13T10:33:03.312Z,73.32
2018-06-13T10:35:37.788Z,73.70
2018-06-13T10:38:10.159Z,72.32
2018-06-13T10:40:41.678Z,71.93
2018-06-13T10:43:13.281Z,74.22
2018-06-13T10:45:46.877Z,74.63
2018-06-13T10:48:20.475Z,74.23
2018-06-13T10:50:52.353Z,72.31
2018-06-13T10:53:24.257Z,67.73
2018-06-13T10:55:56.931Z,66.72
2018-06-13T10:58:29.953Z,67.02
2018-06-13T11:01:01.017Z,61.77
2018-06-13T11:03:32.134Z,57.98
2018-06-13T11:06:03.695Z,56.52
2018-06-13T11:08:35.720Z,56.41
2018-06-13T11:11:07.240Z,58.83
2018-06-13T11:13:39.637Z,57.37
2018-06-13T11:16:11.274Z,56.71
2018-06-13T11:18:43.537Z,56.80
2018-06-13T11:21:15.670Z,55.19
2018-06-13T11:23:49.437Z,55.08
2018-06-13T11:26:20.950Z,54.54
2018-06-13T11:28:52.612Z,55.06
2018-06-13T11:31:23.814Z,55.27
2018-06-13T11:33:55.483Z,54.48
2018-06-13T11:36:29.428Z,56.90
2018-06-13T11:39:01.928Z,61.16
2018-06-13T11:41:34.130Z,62.47
2018-06-13T11:44:06.694Z,64.66
2018-06-13T11:46:39.161Z,62.70
2018-06-13T11:49:12.913Z,61.43
2018-06-13T11:51:45.264Z,61.22
2018-06-13T11:54:17.050Z,65.33
2018-06-13T11:56:50.805Z,69.36
2018-06-13T11:59:22.509Z,71.91
2018-06-13T12:01:55.163Z,75.66
2018-06-13T12:04:26.577Z,79.70
2018-06-13T12:06:57.602Z,80.91
2018-06-13T12:09:31.785Z,78.45
2018-06-13T12:12:03.904Z,80.93
2018-06-13T12:14:35.178Z,78.56
2018-06-13T12:17:06.821Z,73.93
2018-06-13T12:19:38.204Z,73.58
2018-06-13T12:22:10.001Z,73.79
2018-06-13T12:24:42.720Z,72.38
2018-06-13T12:27:15.021Z,70.85
2018-06-13T12:29:46.278Z,69.97
2018-06-13T12:32:18.919Z,66.61
2018-06-13T12:34:51.016Z,65.98
2018-06-13T12:37:22.764Z,63.79
2018-06-13T12:39:55.779Z,62.24
2018-06-13T12:42:31.422Z,62.77
2018-06-13T12:45:05.083Z,63.86
2018-06-13T12:47:36.790Z,64.68
2018-06-13T12:50:08.863Z,63.26
2018-06-13T12:52:41.025Z,61.53
2018-06-13T12:55:14.827Z,60.80
2018-06-13T12:57:47.687Z,61.80
2018-06-13T13:00:19.408Z,65.81
2018-06-13T13:02:51.880Z,68.29
2018-06-13T13:05:25.813Z,67.87
2018-06-13T13:07:58.570Z,67.53
2018-06-13T13:10:30.586Z,68.38
2018-06-13T13:13:01.523Z,67.63
2018-06-13T13:15:33.267Z,67.20
2018-06-13T13:18:05.017Z,67.94
2018-06-13T13:20:36.497Z,68.08
2018-06-13T13:23:08.169Z,69.37
2018-06-13T13:25:40.797Z,67.37
2018-06-13T13:28:13.244Z,67.48
2018-06-13T13:30:44.792Z,64.77
2018-06-13T13:33:15.616Z,61.30
2018-06-13T13:35:47.140Z,63.03
2018-06-13T13:38:18.926Z,62.79
2018-06-13T13:40:50.460Z,59.89
2018-06-13T13:43:21.917Z,60.00
2018-06-13T13:45:54.429Z,55.90
2018-06-13T13:48:25.654Z,56.59
2018-06-13T13:50:57.501Z,54.60
2018-06-13T13:53:29.385Z,55.42
2018-06-13T13:56:01.483Z,53.50
2018-06-13T13:58:32.996Z,53.67
2018-06-13T14:01:05.228Z,58.47
2018-06-13T14:03:38.406Z,56.83
2018-06-13T14:06:10.176Z,55.98
2018-06-13T14:08:42.018Z,52.11
2018-06-13T14:11:13.586Z,53.21
2018-06-13T14:13:48.733Z,54.08
2018-06-13T14:16:22.668Z,56.50
2018-06-13T14:18:54.098Z,58.65
2018-06-13T14:21:25.959Z,58.74
2018-06-13T14:23:57.109Z,61.34
2018-06-13T14:26:28.551Z,61.17
2018-06-13T14:29:00.788Z,58.55
2018-06-13T14:31:34.754Z,60.50
2018-06-13T14:34:06.716Z,58.36
2018-06-13T14:36:38.417Z,55.50
2018-06-13T14:39:11.422Z,54.99
2018-06-13T14:41:43.563Z,54.68
2018-06-13T14:44:15.384Z,57.18
2018-06-13T14:46:47.323Z,57.90
2018-06-13T14:49:20.836Z,58.85
2018-06-13T14:51:56.152Z,59.42
2018-06-13T14:54:31.418Z,58.84
2018-06-13T14:57:06.355Z,59.21
2018-06-13T14:59:40.389Z,61.29
2018-06-13T15:02:12.062Z,61.65
2018-06-13T15:04:43.916Z,63.86
2018-06-13T15:07:15.280Z,66.29
2018-06-13T15:09:48.820Z,65.26
2018-06-13T15:12:20.514Z,64.74
2018-06-13T15:14:53.027Z,64.09
2018-06-13T15:17:25.311Z,63.99
2018-06-13T15:19:57.698Z,62.30
2018-06-13T15:22:29.535Z,61.90
2018-06-13T15:25:01.109Z,62.42
2018-06-13T15:27:33.547Z,61.64
2018-06-13T15:30:06.975Z,60.33
2018-06-13T15:32:38.615Z,59.08
2018-06-13T15:35:10.634Z,60.81
2018-06-13T15:37:42.978Z,61.99
2018-06-13T15:40:14.569Z,62.85
2018-06-13T15:42:46.509Z,62.14
2018-06-13T15:45:18.909Z,61.82
2018-06-13T15:47:50.647Z,62.33
2018-06-13T15:50:22.199Z,63.41
2018-06-13T15:52:55.985Z,63.87
2018-06-13T15:55:28.000Z,63.90
2018-06-13T15:57:59.402Z,65.52
2018-06-13T16:00:31.663Z,65.16
2018-06-13T16:03:04.832Z,67.81
2018-06-13T16:05:36.552Z,68.68
2018-06-13T16:08:08.449Z,69.61
2018-06-13T16:10:39.737Z,69.36
2018-06-13T16:13:12.212Z,70.30
2018-06-13T16:15:44.843Z,71.40
2018-06-13T16:18:16.649Z,73.39
2018-06-13T16:20:47.850Z,74.69
2018-06-13T16:23:20.595Z,77.00
2018-06-13T16:25:52.381Z,79.33
2018-06-13T16:28:24.022Z,80.29
2018-06-13T16:30:56.406Z,80.74
2018-06-13T16:33:28.297Z,82.47
2018-06-13T16:35:59.958Z,82.98
2018-06-13T16:38:32.461Z,81.61
2018-06-13T16:41:04.036Z,80.69
2018-06-13T16:43:36.747Z,81.27
2018-06-13T16:46:09.951Z,79.22
2018-06-13T16:48:41.962Z,78.76
2018-06-13T16:51:29.312Z,79.06
2018-06-13T16:54:13.175Z,79.57
2018-06-13T16:56:45.425Z,81.36
2018-06-13T16:59:17.229Z,80.59
2018-06-13T17:01:50.692Z,82.66
2018-06-13T17:04:23.282Z,83.18
2018-06-13T17:06:55.541Z,83.28
2018-06-13T17:09:27.556Z,83.59
2018-06-13T17:11:59.175Z,86.73
2018-06-13T17:14:30.711Z,88.53
2018-06-13T17:17:02.027Z,88.82
2018-06-13T17:19:33.552Z,89.90
2018-06-13T17:22:06.065Z,90.90
2018-06-13T17:24:37.982Z,90.61
2018-06-13T17:27:12.707Z,91.72
2018-06-13T17:29:44.862Z,90.58
2018-06-13T17:32:16.237Z,89.00
2018-06-13T17:34:48.253Z,89.60
2018-06-13T17:37:20.686Z,90.30
2018-06-13T17:39:53.398Z,88.83
2018-06-13T17:42:25.858Z,90.12
2018-06-13T17:44:58.710Z,91.14
2018-06-13T17:47:31.319Z,91.58
2018-06-13T17:50:04.106Z,92.91
2018-06-13T17:52:37.679Z,92.81
2018-06-13T17:55:10.060Z,93.05
2018-06-13T17:57:42.671Z,91.54
2018-06-13T18:00:15.692Z,91.16
2018-06-13T18:02:48.677Z,92.28
2018-06-13T18:05:23.397Z,91.85
2018-06-13T18:07:59.489Z,92.65
2018-06-13T18:10:32.548Z,92.81
2018-06-13T18:13:06.044Z,91.96
2018-06-13T18:15:41.391Z,92.69
2018-06-13T18:18:14.229Z,92.16
2018-06-13T18:20:48.616Z,91.45
2018-06-13T18:23:21.397Z,91.93
2018-06-13T18:25:54.453Z,92.27
2018-06-13T18:28:28.768Z,92.93
2018-06-13T18:31:02.924Z,92.29
2018-06-13T18:33:38.860Z,92.28
2018-06-13T18:36:11.895Z,92.19
2018-06-13T18:38:45.340Z,91.96
2018-06-13T18:41:18.956Z,91.66
2018-06-13T18:44:55.577Z,91.05
2018-06-13T18:47:28.534Z,91.13
2018-06-13T18:50:01.551Z,91.85
2018-06-13T18:52:34.194Z,92.22
2018-06-13T18:55:07.626Z,92.95
2018-06-13T18:57:41.333Z,92.28
2018-06-13T19:00:14.821Z,91.21
2018-06-13T19:02:48.070Z,91.79
2018-06-13T19:05:21.225Z,91.31
2018-06-13T19:07:53.839Z,91.54
2018-06-13T19:10:27.955Z,92.08
2018-06-13T19:13:01.169Z,92.09
2018-06-13T19:15:36.028Z,92.18
2018-06-13T19:18:08.876Z,91.97
2018-06-13T19:20:42.110Z,91.54
2018-06-13T19:23:15.951Z,91.71
2018-06-13T19:25:50.438Z,91.66
2018-06-13T19:28:23.424Z,91.64
2018-06-13T19:30:56.661Z,92.07
2018-06-13T19:33:29.106Z,92.58
2018-06-13T19:36:02.184Z,91.95
2018-06-13T19:38:35.742Z,92.51
2018-06-13T19:41:08.656Z,92.87
2018-06-13T19:43:44.223Z,92.92
2018-06-13T19:46:17.672Z,93.17
2018-06-13T19:48:53.366Z,93.07
2018-06-13T19:51:26.522Z,92.87
2018-06-13T19:54:04.002Z,93.29
2018-06-13T19:56:37.653Z,93.69
2018-06-13T19:59:10.835Z,93.38
2018-06-13T20:01:45.460Z,93.31
2018-06-13T20:04:26.675Z,93.57
2018-06-13T20:07:00.277Z,93.93
2018-06-13T20:09:35.455Z,94.25
2018-06-13T20:13:16.366Z,94.41
2018-06-13T20:15:54.377Z,94.73
2018-06-13T20:18:32.063Z,94.98
2018-06-13T20:21:04.897Z,95.50
2018-06-13T20:23:38.007Z,95.91
2018-06-13T20:26:15.790Z,95.65
2018-06-13T20:28:53.408Z,96.25
2018-06-13T20:31:29.084Z,96.02
2018-06-13T20:34:02.232Z,96.57
2018-06-13T20:36:36.407Z,96.41
2018-06-13T20:39:12.257Z,96.46
2018-06-13T20:41:46.028Z,96.30
2018-06-13T20:44:20.159Z,96.38
2018-06-13T20:46:53.675Z,96.89
2018-06-13T20:49:26.890Z,96.56
2018-06-13T20:51:59.106Z,97.20
2018-06-13T20:54:32.758Z,97.09
2018-06-13T20:57:05.051Z,97.00
2018-06-13T20:59:37.185Z,97.12
2018-06-13T21:02:09.986Z,97.02
2018-06-13T21:04:41.845Z,95.72
2018-06-13T21:07:13.947Z,95.30
2018-06-13T21:09:45.339Z,95.44
2018-06-13T21:12:16.710Z,95.19
2018-06-13T21:14:48.238Z,96.09
2018-06-13T21:17:20.375Z,95.59
2018-06-13T21:19:52.592Z,95.24
2018-06-13T21:22:23.861Z,95.54
2018-06-13T21:24:55.008Z,96.15
2018-06-13T21:27:27.728Z,95.51
2018-06-13T21:30:00.276Z,95.28
2018-06-13T21:32:31.872Z,95.47
2018-06-13T21:35:04.366Z,95.76
2018-06-13T21:37:36.126Z,95.55
2018-06-13T21:40:10.748Z,95.29
2018-06-13T21:42:42.995Z,95.32
2018-06-13T21:45:14.465Z,95.27
2018-06-13T21:47:46.526Z,95.83
2018-06-13T21:50:18.641Z,95.49
2018-06-13T21:52:50.091Z,95.80
2018-06-13T21:55:21.582Z,95.81
2018-06-13T21:57:52.667Z,95.44
2018-06-13T22:00:30.284Z,95.76
2018-06-13T22:03:02.634Z,95.45
2018-06-13T22:05:35.760Z,95.14
2018-06-13T22:08:07.062Z,95.14
2018-06-13T22:10:38.665Z,95.21
2018-06-13T22:13:10.514Z,95.25
2018-06-13T22:15:43.815Z,95.51
2018-06-13T22:18:14.595Z,95.34
2018-06-13T22:20:45.560Z,95.07
2018-06-13T22:23:16.728Z,94.81
2018-06-13T22:25:48.881Z,94.54
2018-06-13T22:28:20.617Z,94.21
2018-06-13T22:30:51.830Z,94.14
2018-06-13T22:33:23.471Z,94.24
2018-06-13T22:35:54.914Z,94.58
2018-06-13T22:38:26.518Z,94.83
2018-06-13T22:40:57.857Z,94.89
2018-06-13T22:43:29.638Z,94.99
2018-06-13T22:46:01.229Z,95.55
2018-06-13T22:48:32.616Z,95.01
2018-06-13T22:51:03.867Z,95.79
2018-06-13T22:53:34.970Z,95.70
2018-06-13T22:56:06.115Z,95.33
2018-06-13T22:58:37.599Z,95.66
2018-06-13T23:01:10.822Z,95.55
2018-06-13T23:03:42.165Z,95.47
2018-06-13T23:06:13.382Z,95.32
2018-06-13T23:08:44.663Z,95.50
2018-06-13T23:11:19.587Z,95.34
2018-06-13T23:13:50.707Z,95.64
2018-06-13T23:16:23.714Z,96.19
2018-06-13T23:18:55.387Z,96.17
2018-06-13T23:21:27.497Z,96.33
2018-06-13T23:24:00.133Z,96.10
2018-06-13T23:26:30.592Z,96.34
2018-06-13T23:29:01.924Z,95.89
2018-06-13T23:31:33.127Z,95.80
2018-06-13T23:34:05.518Z,96.13
2018-06-13T23:36:37.693Z,95.90
2018-06-13T23:39:10.373Z,95.77
2018-06-13T23:41:42.165Z,95.79
2018-06-13T23:44:12.600Z,96.14
2018-06-13T23:46:43.961Z,96.08
2018-06-13T23:49:15.765Z,95.81
2018-06-13T23:51:47.123Z,95.66
2018-06-13T23:54:19.132Z,96.13
2018-06-13T23:56:50.443Z,96.18
2018-06-13T23:59:22.204Z,95.61
